sensor_id;sensor_type;location;lat;lon;timestamp;P1;durP1;ratioP1;P2;durP2;ratioP2
9541;SDS011;4809;48.224;8.572;2024-02-23T00:00:57;0.20;;;0.20;;
9541;SDS011;4809;48.224;8.572;2024-02-23T00:03:23;0.10;;;0.10;;
9541;SDS011;4809;48.224;8.572;2024-02-23T00:05:48;0.10;;;0.10;;
9541;SDS011;4809;48.224;8.572;2024-02-23T00:08:13;0.20;;;0.20;;
9541;SDS011;4809;48.224;8.572;2024-02-23T00:10:39;0.20;;;0.20;;
9541;SDS011;4809;48.224;8.572;2024-02-23T00:13:04;0.57;;;0.30;;
9541;SDS011;4809;48.224;8.572;2024-02-23T00:15:29;0.20;;;0.20;;
9541;SDS011;4809;48.224;8.572;2024-02-23T00:17:55;0.57;;;0.23;;
9541;SDS011;4809;48.224;8.572;2024-02-23T00:20:20;0.10;;;0.10;;
9541;SDS011;4809;48.224;8.572;2024-02-23T00:22:46;0.10;;;0.10;;
9541;SDS011;4809;48.224;8.572;2024-02-23T00:25:11;0.20;;;0.20;;
9541;SDS011;4809;48.224;8.572;2024-02-23T00:27:37;0.20;;;0.20;;
9541;SDS011;4809;48.224;8.572;2024-02-23T00:30:04;0.10;;;0.10;;
9541;SDS011;4809;48.224;8.572;2024-02-23T00:32:30;0.20;;;0.20;;
9541;SDS011;4809;48.224;8.572;2024-02-23T00:34:56;0.20;;;0.20;;
9541;SDS011;4809;48.224;8.572;2024-02-23T00:37:22;0.77;;;0.30;;
9541;SDS011;4809;48.224;8.572;2024-02-23T00:39:47;0.73;;;0.20;;
9541;SDS011;4809;48.224;8.572;2024-02-23T00:42:13;0.10;;;0.10;;
9541;SDS011;4809;48.224;8.572;2024-02-23T00:44:38;0.27;;;0.27;;
9541;SDS011;4809;48.224;8.572;2024-02-23T00:47:03;0.50;;;0.20;;
9541;SDS011;4809;48.224;8.572;2024-02-23T00:49:29;2.20;;;0.20;;
9541;SDS011;4809;48.224;8.572;2024-02-23T00:51:55;0.27;;;0.17;;
9541;SDS011;4809;48.224;8.572;2024-02-23T00:54:20;0.10;;;0.10;;
9541;SDS011;4809;48.224;8.572;2024-02-23T00:56:46;0.10;;;0.10;;
9541;SDS011;4809;48.224;8.572;2024-02-23T00:59:11;0.10;;;0.10;;
9541;SDS011;4809;48.224;8.572;2024-02-23T01:01:36;0.10;;;0.10;;
9541;SDS011;4809;48.224;8.572;2024-02-23T01:04:02;0.20;;;0.20;;
9541;SDS011;4809;48.224;8.572;2024-02-23T01:06:27;0.10;;;0.10;;
9541;SDS011;4809;48.224;8.572;2024-02-23T01:08:53;0.10;;;0.10;;
9541;SDS011;4809;48.224;8.572;2024-02-23T01:11:18;0.10;;;0.10;;
9541;SDS011;4809;48.224;8.572;2024-02-23T01:13:44;0.17;;;0.10;;
9541;SDS011;4809;48.224;8.572;2024-02-23T01:16:09;0.00;;;0.00;;
9541;SDS011;4809;48.224;8.572;2024-02-23T01:18:35;0.10;;;0.10;;
9541;SDS011;4809;48.224;8.572;2024-02-23T01:21:00;0.20;;;0.10;;
9541;SDS011;4809;48.224;8.572;2024-02-23T01:23:25;0.10;;;0.10;;
9541;SDS011;4809;48.224;8.572;2024-02-23T01:25:51;0.10;;;0.10;;
9541;SDS011;4809;48.224;8.572;2024-02-23T01:28:16;0.00;;;0.00;;
9541;SDS011;4809;48.224;8.572;2024-02-23T01:30:42;0.83;;;0.20;;
9541;SDS011;4809;48.224;8.572;2024-02-23T01:33:07;0.20;;;0.20;;
9541;SDS011;4809;48.224;8.572;2024-02-23T01:35:33;0.30;;;0.30;;
9541;SDS011;4809;48.224;8.572;2024-02-23T01:37:58;0.30;;;0.13;;
9541;SDS011;4809;48.224;8.572;2024-02-23T01:40:24;0.47;;;0.20;;
9541;SDS011;4809;48.224;8.572;2024-02-23T01:42:49;0.63;;;0.30;;
9541;SDS011;4809;48.224;8.572;2024-02-23T01:45:26;0.67;;;0.67;;
9541;SDS011;4809;48.224;8.572;2024-02-23T01:47:51;0.47;;;0.30;;
9541;SDS011;4809;48.224;8.572;2024-02-23T01:50:17;0.37;;;0.30;;
9541;SDS011;4809;48.224;8.572;2024-02-23T01:52:42;0.30;;;0.30;;
9541;SDS011;4809;48.224;8.572;2024-02-23T01:55:08;0.50;;;0.43;;
9541;SDS011;4809;48.224;8.572;2024-02-23T01:57:33;1.13;;;0.50;;
9541;SDS011;4809;48.224;8.572;2024-02-23T01:59:59;0.83;;;0.50;;
9541;SDS011;4809;48.224;8.572;2024-02-23T02:02:25;0.33;;;0.20;;
9541;SDS011;4809;48.224;8.572;2024-02-23T02:04:50;0.67;;;0.47;;
9541;SDS011;4809;48.224;8.572;2024-02-23T02:07:15;0.30;;;0.30;;
9541;SDS011;4809;48.224;8.572;2024-02-23T02:09:43;1.23;;;0.40;;
9541;SDS011;4809;48.224;8.572;2024-02-23T02:12:08;2.10;;;0.50;;
9541;SDS011;4809;48.224;8.572;2024-02-23T02:14:35;1.37;;;0.40;;
9541;SDS011;4809;48.224;8.572;2024-02-23T02:17:00;0.23;;;0.23;;
9541;SDS011;4809;48.224;8.572;2024-02-23T02:19:26;0.40;;;0.40;;
9541;SDS011;4809;48.224;8.572;2024-02-23T02:21:51;2.07;;;0.67;;
9541;SDS011;4809;48.224;8.572;2024-02-23T02:24:17;0.90;;;0.40;;
9541;SDS011;4809;48.224;8.572;2024-02-23T02:26:42;1.77;;;0.50;;
9541;SDS011;4809;48.224;8.572;2024-02-23T02:29:10;0.50;;;0.50;;
9541;SDS011;4809;48.224;8.572;2024-02-23T02:31:36;1.80;;;0.67;;
9541;SDS011;4809;48.224;8.572;2024-02-23T02:34:02;0.37;;;0.37;;
9541;SDS011;4809;48.224;8.572;2024-02-23T02:36:28;0.33;;;0.20;;
9541;SDS011;4809;48.224;8.572;2024-02-23T02:38:54;1.37;;;0.43;;
9541;SDS011;4809;48.224;8.572;2024-02-23T02:41:19;0.87;;;0.43;;
9541;SDS011;4809;48.224;8.572;2024-02-23T02:43:44;1.03;;;0.50;;
9541;SDS011;4809;48.224;8.572;2024-02-23T02:46:10;0.50;;;0.50;;
9541;SDS011;4809;48.224;8.572;2024-02-23T02:48:35;1.17;;;0.40;;
9541;SDS011;4809;48.224;8.572;2024-02-23T02:51:03;0.50;;;0.50;;
9541;SDS011;4809;48.224;8.572;2024-02-23T02:53:29;1.60;;;0.40;;
9541;SDS011;4809;48.224;8.572;2024-02-23T02:55:55;0.80;;;0.40;;
9541;SDS011;4809;48.224;8.572;2024-02-23T02:58:20;0.33;;;0.33;;
9541;SDS011;4809;48.224;8.572;2024-02-23T03:00:46;0.40;;;0.40;;
9541;SDS011;4809;48.224;8.572;2024-02-23T03:03:11;1.53;;;0.50;;
9541;SDS011;4809;48.224;8.572;2024-02-23T03:05:38;0.90;;;0.40;;
9541;SDS011;4809;48.224;8.572;2024-02-23T03:08:03;0.50;;;0.50;;
9541;SDS011;4809;48.224;8.572;2024-02-23T03:10:29;1.80;;;0.43;;
9541;SDS011;4809;48.224;8.572;2024-02-23T03:12:54;0.47;;;0.47;;
9541;SDS011;4809;48.224;8.572;2024-02-23T03:15:19;1.13;;;0.60;;
9541;SDS011;4809;48.224;8.572;2024-02-23T03:17:45;0.30;;;0.30;;
9541;SDS011;4809;48.224;8.572;2024-02-23T03:20:11;1.33;;;0.60;;
9541;SDS011;4809;48.224;8.572;2024-02-23T03:22:37;1.87;;;0.80;;
9541;SDS011;4809;48.224;8.572;2024-02-23T03:25:03;2.53;;;0.50;;
9541;SDS011;4809;48.224;8.572;2024-02-23T03:27:33;1.03;;;0.57;;
9541;SDS011;4809;48.224;8.572;2024-02-23T03:29:59;1.07;;;0.57;;
9541;SDS011;4809;48.224;8.572;2024-02-23T03:32:24;1.60;;;0.50;;
9541;SDS011;4809;48.224;8.572;2024-02-23T03:34:50;1.53;;;0.70;;
9541;SDS011;4809;48.224;8.572;2024-02-23T03:37:15;1.80;;;0.60;;
9541;SDS011;4809;48.224;8.572;2024-02-23T03:39:40;0.60;;;0.40;;
9541;SDS011;4809;48.224;8.572;2024-02-23T03:42:06;0.63;;;0.63;;
9541;SDS011;4809;48.224;8.572;2024-02-23T03:44:31;0.90;;;0.40;;
9541;SDS011;4809;48.224;8.572;2024-02-23T03:46:56;1.07;;;0.60;;
9541;SDS011;4809;48.224;8.572;2024-02-23T03:49:22;1.00;;;0.70;;
9541;SDS011;4809;48.224;8.572;2024-02-23T03:51:47;1.93;;;0.73;;
9541;SDS011;4809;48.224;8.572;2024-02-23T03:54:12;1.17;;;0.63;;
9541;SDS011;4809;48.224;8.572;2024-02-23T03:56:41;1.60;;;0.90;;
9541;SDS011;4809;48.224;8.572;2024-02-23T03:59:07;1.57;;;0.77;;
9541;SDS011;4809;48.224;8.572;2024-02-23T04:01:35;1.07;;;0.70;;
9541;SDS011;4809;48.224;8.572;2024-02-23T04:04:04;0.40;;;0.40;;
9541;SDS011;4809;48.224;8.572;2024-02-23T04:06:30;1.23;;;0.67;;
9541;SDS011;4809;48.224;8.572;2024-02-23T04:08:55;2.57;;;0.67;;
9541;SDS011;4809;48.224;8.572;2024-02-23T04:11:21;1.70;;;0.70;;
9541;SDS011;4809;48.224;8.572;2024-02-23T04:13:47;3.10;;;0.70;;
9541;SDS011;4809;48.224;8.572;2024-02-23T04:16:12;1.73;;;0.50;;
9541;SDS011;4809;48.224;8.572;2024-02-23T04:18:38;2.93;;;0.67;;
9541;SDS011;4809;48.224;8.572;2024-02-23T04:21:03;1.97;;;0.50;;
9541;SDS011;4809;48.224;8.572;2024-02-23T04:23:29;1.90;;;0.60;;
9541;SDS011;4809;48.224;8.572;2024-02-23T04:25:54;1.10;;;0.60;;
9541;SDS011;4809;48.224;8.572;2024-02-23T04:28:19;1.40;;;0.80;;
9541;SDS011;4809;48.224;8.572;2024-02-23T04:30:45;1.63;;;0.80;;
9541;SDS011;4809;48.224;8.572;2024-02-23T04:33:10;1.30;;;0.77;;
9541;SDS011;4809;48.224;8.572;2024-02-23T04:35:35;2.23;;;0.70;;
9541;SDS011;4809;48.224;8.572;2024-02-23T04:38:01;1.43;;;0.70;;
9541;SDS011;4809;48.224;8.572;2024-02-23T04:40:27;1.07;;;0.50;;
9541;SDS011;4809;48.224;8.572;2024-02-23T04:42:52;1.13;;;0.63;;
9541;SDS011;4809;48.224;8.572;2024-02-23T04:45:19;0.67;;;0.67;;
9541;SDS011;4809;48.224;8.572;2024-02-23T04:47:44;3.20;;;1.20;;
9541;SDS011;4809;48.224;8.572;2024-02-23T04:50:11;1.50;;;0.90;;
9541;SDS011;4809;48.224;8.572;2024-02-23T04:52:37;0.67;;;0.67;;
9541;SDS011;4809;48.224;8.572;2024-02-23T04:55:02;1.27;;;0.70;;
9541;SDS011;4809;48.224;8.572;2024-02-23T04:57:28;4.03;;;0.93;;
9541;SDS011;4809;48.224;8.572;2024-02-23T04:59:53;2.43;;;1.13;;
9541;SDS011;4809;48.224;8.572;2024-02-23T05:02:18;1.43;;;0.90;;
9541;SDS011;4809;48.224;8.572;2024-02-23T05:04:44;1.07;;;0.90;;
9541;SDS011;4809;48.224;8.572;2024-02-23T05:07:09;1.47;;;0.60;;
9541;SDS011;4809;48.224;8.572;2024-02-23T05:09:34;2.33;;;1.07;;
9541;SDS011;4809;48.224;8.572;2024-02-23T05:12:00;2.57;;;1.03;;
9541;SDS011;4809;48.224;8.572;2024-02-23T05:14:26;1.80;;;0.70;;
9541;SDS011;4809;48.224;8.572;2024-02-23T05:16:53;2.97;;;0.67;;
9541;SDS011;4809;48.224;8.572;2024-02-23T05:19:18;2.67;;;0.87;;
9541;SDS011;4809;48.224;8.572;2024-02-23T05:21:43;2.13;;;1.50;;
9541;SDS011;4809;48.224;8.572;2024-02-23T05:24:10;1.57;;;0.90;;
9541;SDS011;4809;48.224;8.572;2024-02-23T05:26:36;1.90;;;0.70;;
9541;SDS011;4809;48.224;8.572;2024-02-23T05:29:01;3.93;;;0.90;;
9541;SDS011;4809;48.224;8.572;2024-02-23T05:31:50;1.87;;;0.80;;
9541;SDS011;4809;48.224;8.572;2024-02-23T05:34:16;1.57;;;0.60;;
9541;SDS011;4809;48.224;8.572;2024-02-23T05:36:42;2.27;;;0.80;;
9541;SDS011;4809;48.224;8.572;2024-02-23T05:39:08;1.00;;;0.80;;
9541;SDS011;4809;48.224;8.572;2024-02-23T05:41:34;2.20;;;0.60;;
9541;SDS011;4809;48.224;8.572;2024-02-23T05:44:01;1.20;;;0.80;;
9541;SDS011;4809;48.224;8.572;2024-02-23T05:46:30;1.37;;;0.77;;
9541;SDS011;4809;48.224;8.572;2024-02-23T05:48:56;2.10;;;0.90;;
9541;SDS011;4809;48.224;8.572;2024-02-23T05:51:22;1.97;;;0.70;;
9541;SDS011;4809;48.224;8.572;2024-02-23T05:53:47;2.93;;;0.97;;
9541;SDS011;4809;48.224;8.572;2024-02-23T05:56:13;1.33;;;0.93;;
9541;SDS011;4809;48.224;8.572;2024-02-23T05:58:38;2.20;;;0.67;;
9541;SDS011;4809;48.224;8.572;2024-02-23T06:01:03;2.57;;;1.00;;
9541;SDS011;4809;48.224;8.572;2024-02-23T06:03:29;0.83;;;0.83;;
9541;SDS011;4809;48.224;8.572;2024-02-23T06:05:54;1.37;;;1.10;;
9541;SDS011;4809;48.224;8.572;2024-02-23T06:08:20;0.80;;;0.70;;
9541;SDS011;4809;48.224;8.572;2024-02-23T06:10:45;4.57;;;1.30;;
9541;SDS011;4809;48.224;8.572;2024-02-23T06:13:10;2.30;;;0.80;;
9541;SDS011;4809;48.224;8.572;2024-02-23T06:15:36;1.23;;;0.50;;
9541;SDS011;4809;48.224;8.572;2024-02-23T06:18:01;2.33;;;0.83;;
9541;SDS011;4809;48.224;8.572;2024-02-23T06:20:26;1.40;;;0.67;;
9541;SDS011;4809;48.224;8.572;2024-02-23T06:22:52;1.87;;;0.90;;
9541;SDS011;4809;48.224;8.572;2024-02-23T06:25:17;1.20;;;0.67;;
9541;SDS011;4809;48.224;8.572;2024-02-23T06:27:43;2.97;;;0.70;;
9541;SDS011;4809;48.224;8.572;2024-02-23T06:30:08;2.50;;;1.07;;
9541;SDS011;4809;48.224;8.572;2024-02-23T06:32:36;2.80;;;0.73;;
9541;SDS011;4809;48.224;8.572;2024-02-23T06:35:01;2.97;;;0.93;;
9541;SDS011;4809;48.224;8.572;2024-02-23T06:37:28;2.43;;;1.20;;
9541;SDS011;4809;48.224;8.572;2024-02-23T06:39:53;3.07;;;1.00;;
9541;SDS011;4809;48.224;8.572;2024-02-23T06:42:20;3.53;;;1.30;;
9541;SDS011;4809;48.224;8.572;2024-02-23T06:44:46;2.40;;;1.13;;
9541;SDS011;4809;48.224;8.572;2024-02-23T06:47:11;2.83;;;1.10;;
9541;SDS011;4809;48.224;8.572;2024-02-23T06:49:40;1.60;;;1.00;;
9541;SDS011;4809;48.224;8.572;2024-02-23T06:52:07;4.03;;;1.13;;
9541;SDS011;4809;48.224;8.572;2024-02-23T06:54:32;2.07;;;0.87;;
9541;SDS011;4809;48.224;8.572;2024-02-23T06:56:57;3.27;;;1.03;;
9541;SDS011;4809;48.224;8.572;2024-02-23T06:59:23;1.87;;;1.20;;
9541;SDS011;4809;48.224;8.572;2024-02-23T07:01:49;3.37;;;1.70;;
9541;SDS011;4809;48.224;8.572;2024-02-23T07:04:15;3.10;;;1.43;;
9541;SDS011;4809;48.224;8.572;2024-02-23T07:06:40;3.53;;;1.47;;
9541;SDS011;4809;48.224;8.572;2024-02-23T07:09:06;3.43;;;1.30;;
9541;SDS011;4809;48.224;8.572;2024-02-23T07:11:31;4.10;;;1.40;;
9541;SDS011;4809;48.224;8.572;2024-02-23T07:13:57;4.67;;;1.70;;
9541;SDS011;4809;48.224;8.572;2024-02-23T07:16:22;4.20;;;1.80;;
9541;SDS011;4809;48.224;8.572;2024-02-23T07:18:47;4.87;;;2.17;;
9541;SDS011;4809;48.224;8.572;2024-02-23T07:21:16;5.60;;;2.07;;
9541;SDS011;4809;48.224;8.572;2024-02-23T07:23:42;2.90;;;1.70;;
9541;SDS011;4809;48.224;8.572;2024-02-23T07:26:08;2.93;;;1.50;;
9541;SDS011;4809;48.224;8.572;2024-02-23T07:28:33;3.30;;;1.47;;
9541;SDS011;4809;48.224;8.572;2024-02-23T07:30:58;1.83;;;1.30;;
9541;SDS011;4809;48.224;8.572;2024-02-23T07:33:24;3.20;;;1.20;;
9541;SDS011;4809;48.224;8.572;2024-02-23T07:35:49;3.87;;;2.03;;
9541;SDS011;4809;48.224;8.572;2024-02-23T07:38:14;4.77;;;1.37;;
9541;SDS011;4809;48.224;8.572;2024-02-23T07:40:40;3.00;;;1.50;;
9541;SDS011;4809;48.224;8.572;2024-02-23T07:43:05;3.57;;;1.30;;
9541;SDS011;4809;48.224;8.572;2024-02-23T07:45:30;4.20;;;1.40;;
9541;SDS011;4809;48.224;8.572;2024-02-23T07:47:57;2.33;;;1.00;;
9541;SDS011;4809;48.224;8.572;2024-02-23T07:50:24;1.97;;;1.13;;
9541;SDS011;4809;48.224;8.572;2024-02-23T07:52:49;2.17;;;1.40;;
9541;SDS011;4809;48.224;8.572;2024-02-23T07:55:15;4.00;;;1.50;;
9541;SDS011;4809;48.224;8.572;2024-02-23T07:57:40;2.30;;;1.50;;
9541;SDS011;4809;48.224;8.572;2024-02-23T08:00:06;2.83;;;1.50;;
9541;SDS011;4809;48.224;8.572;2024-02-23T08:02:34;5.13;;;1.47;;
9541;SDS011;4809;48.224;8.572;2024-02-23T08:04:59;6.57;;;1.17;;
9541;SDS011;4809;48.224;8.572;2024-02-23T08:07:26;8.77;;;1.40;;
9541;SDS011;4809;48.224;8.572;2024-02-23T08:09:53;2.10;;;1.10;;
9541;SDS011;4809;48.224;8.572;2024-02-23T08:12:18;3.43;;;1.30;;
9541;SDS011;4809;48.224;8.572;2024-02-23T08:14:44;2.53;;;1.10;;
9541;SDS011;4809;48.224;8.572;2024-02-23T08:17:10;3.10;;;1.20;;
9541;SDS011;4809;48.224;8.572;2024-02-23T08:19:36;3.97;;;1.20;;
9541;SDS011;4809;48.224;8.572;2024-02-23T08:22:01;2.53;;;1.17;;
9541;SDS011;4809;48.224;8.572;2024-02-23T08:24:27;1.83;;;1.10;;
9541;SDS011;4809;48.224;8.572;2024-02-23T08:26:52;4.63;;;1.30;;
9541;SDS011;4809;48.224;8.572;2024-02-23T08:29:18;4.17;;;1.17;;
9541;SDS011;4809;48.224;8.572;2024-02-23T08:31:44;2.17;;;1.23;;
9541;SDS011;4809;48.224;8.572;2024-02-23T08:34:09;5.13;;;2.10;;
9541;SDS011;4809;48.224;8.572;2024-02-23T08:36:34;2.10;;;1.60;;
9541;SDS011;4809;48.224;8.572;2024-02-23T08:39:00;4.27;;;1.47;;
9541;SDS011;4809;48.224;8.572;2024-02-23T08:41:25;2.73;;;1.27;;
9541;SDS011;4809;48.224;8.572;2024-02-23T08:43:50;2.70;;;1.50;;
9541;SDS011;4809;48.224;8.572;2024-02-23T08:46:16;4.40;;;1.40;;
9541;SDS011;4809;48.224;8.572;2024-02-23T08:48:41;2.30;;;1.17;;
9541;SDS011;4809;48.224;8.572;2024-02-23T08:51:07;3.07;;;1.47;;
9541;SDS011;4809;48.224;8.572;2024-02-23T08:53:32;2.70;;;1.30;;
9541;SDS011;4809;48.224;8.572;2024-02-23T08:55:57;3.55;;;1.65;;
9541;SDS011;4809;48.224;8.572;2024-02-23T08:58:23;2.42;;;1.23;;
9541;SDS011;4809;48.224;8.572;2024-02-23T09:00:48;5.40;;;1.48;;
9541;SDS011;4809;48.224;8.572;2024-02-23T09:03:14;3.53;;;1.20;;
9541;SDS011;4809;48.224;8.572;2024-02-23T09:05:39;2.78;;;1.00;;
9541;SDS011;4809;48.224;8.572;2024-02-23T09:08:05;4.20;;;1.50;;
9541;SDS011;4809;48.224;8.572;2024-02-23T09:10:31;3.65;;;1.17;;
9541;SDS011;4809;48.224;8.572;2024-02-23T09:12:57;6.05;;;1.38;;
9541;SDS011;4809;48.224;8.572;2024-02-23T09:15:22;1.95;;;0.93;;
9541;SDS011;4809;48.224;8.572;2024-02-23T09:17:47;2.35;;;1.30;;
9541;SDS011;4809;48.224;8.572;2024-02-23T09:20:13;3.35;;;1.30;;
9541;SDS011;4809;48.224;8.572;2024-02-23T09:22:39;3.70;;;1.27;;
9541;SDS011;4809;48.224;8.572;2024-02-23T09:25:05;3.00;;;1.40;;
9541;SDS011;4809;48.224;8.572;2024-02-23T09:27:31;2.75;;;1.60;;
9541;SDS011;4809;48.224;8.572;2024-02-23T09:29:57;3.70;;;1.77;;
9541;SDS011;4809;48.224;8.572;2024-02-23T09:32:23;5.07;;;2.40;;
9541;SDS011;4809;48.224;8.572;2024-02-23T09:34:49;4.47;;;2.77;;
9541;SDS011;4809;48.224;8.572;2024-02-23T09:37:14;5.57;;;1.45;;
9541;SDS011;4809;48.224;8.572;2024-02-23T09:39:39;6.45;;;3.38;;
9541;SDS011;4809;48.224;8.572;2024-02-23T09:42:06;5.07;;;2.05;;
9541;SDS011;4809;48.224;8.572;2024-02-23T09:44:35;2.40;;;1.50;;
9541;SDS011;4809;48.224;8.572;2024-02-23T09:47:02;4.10;;;1.67;;
9541;SDS011;4809;48.224;8.572;2024-02-23T09:49:33;2.92;;;1.77;;
9541;SDS011;4809;48.224;8.572;2024-02-23T09:52:02;6.00;;;2.30;;
9541;SDS011;4809;48.224;8.572;2024-02-23T09:54:28;3.97;;;2.13;;
9541;SDS011;4809;48.224;8.572;2024-02-23T09:56:54;4.25;;;1.70;;
9541;SDS011;4809;48.224;8.572;2024-02-23T09:59:19;4.03;;;2.10;;
9541;SDS011;4809;48.224;8.572;2024-02-23T10:01:44;4.07;;;1.87;;
9541;SDS011;4809;48.224;8.572;2024-02-23T10:04:10;5.43;;;1.97;;
9541;SDS011;4809;48.224;8.572;2024-02-23T10:06:35;5.68;;;2.42;;
9541;SDS011;4809;48.224;8.572;2024-02-23T10:09:00;4.83;;;2.07;;
9541;SDS011;4809;48.224;8.572;2024-02-23T10:11:29;3.03;;;1.33;;
9541;SDS011;4809;48.224;8.572;2024-02-23T10:13:54;4.55;;;1.60;;
9541;SDS011;4809;48.224;8.572;2024-02-23T10:16:20;3.95;;;1.38;;
9541;SDS011;4809;48.224;8.572;2024-02-23T10:18:49;4.90;;;1.40;;
9541;SDS011;4809;48.224;8.572;2024-02-23T10:21:15;3.83;;;1.20;;
9541;SDS011;4809;48.224;8.572;2024-02-23T10:23:41;2.65;;;1.48;;
9541;SDS011;4809;48.224;8.572;2024-02-23T10:26:07;3.38;;;1.40;;
9541;SDS011;4809;48.224;8.572;2024-02-23T10:28:34;3.55;;;1.55;;
9541;SDS011;4809;48.224;8.572;2024-02-23T10:31:00;3.65;;;1.52;;
9541;SDS011;4809;48.224;8.572;2024-02-23T10:33:26;4.18;;;1.65;;
9541;SDS011;4809;48.224;8.572;2024-02-23T10:35:58;4.30;;;2.00;;
9541;SDS011;4809;48.224;8.572;2024-02-23T10:38:28;3.77;;;1.90;;
9541;SDS011;4809;48.224;8.572;2024-02-23T10:40:57;5.53;;;1.60;;
9541;SDS011;4809;48.224;8.572;2024-02-23T10:43:27;4.20;;;1.63;;
9541;SDS011;4809;48.224;8.572;2024-02-23T10:45:56;5.20;;;1.33;;
9541;SDS011;4809;48.224;8.572;2024-02-23T10:48:22;4.07;;;1.73;;
9541;SDS011;4809;48.224;8.572;2024-02-23T10:50:49;2.43;;;1.00;;
9541;SDS011;4809;48.224;8.572;2024-02-23T10:53:15;5.63;;;1.80;;
9541;SDS011;4809;48.224;8.572;2024-02-23T10:55:44;5.33;;;1.90;;
9541;SDS011;4809;48.224;8.572;2024-02-23T10:58:10;3.35;;;2.00;;
9541;SDS011;4809;48.224;8.572;2024-02-23T11:00:37;4.87;;;1.87;;
9541;SDS011;4809;48.224;8.572;2024-02-23T11:03:03;5.10;;;1.60;;
9541;SDS011;4809;48.224;8.572;2024-02-23T11:05:30;2.63;;;1.33;;
9541;SDS011;4809;48.224;8.572;2024-02-23T11:07:56;5.17;;;1.80;;
9541;SDS011;4809;48.224;8.572;2024-02-23T11:10:22;4.40;;;1.47;;
9541;SDS011;4809;48.224;8.572;2024-02-23T11:12:58;4.45;;;1.67;;
9541;SDS011;4809;48.224;8.572;2024-02-23T11:15:28;4.80;;;1.27;;
9541;SDS011;4809;48.224;8.572;2024-02-23T11:17:55;4.57;;;1.80;;
9541;SDS011;4809;48.224;8.572;2024-02-23T11:20:20;7.53;;;2.35;;
9541;SDS011;4809;48.224;8.572;2024-02-23T11:22:53;5.97;;;1.70;;
9541;SDS011;4809;48.224;8.572;2024-02-23T11:25:19;2.78;;;1.50;;
9541;SDS011;4809;48.224;8.572;2024-02-23T11:27:48;3.45;;;1.67;;
9541;SDS011;4809;48.224;8.572;2024-02-23T11:30:16;4.80;;;1.30;;
9541;SDS011;4809;48.224;8.572;2024-02-23T11:32:43;3.47;;;1.40;;
9541;SDS011;4809;48.224;8.572;2024-02-23T11:35:12;5.88;;;1.80;;
9541;SDS011;4809;48.224;8.572;2024-02-23T11:40:33;3.88;;;1.35;;
9541;SDS011;4809;48.224;8.572;2024-02-23T11:42:59;4.07;;;1.52;;
9541;SDS011;4809;48.224;8.572;2024-02-23T11:45:25;5.00;;;1.50;;
9541;SDS011;4809;48.224;8.572;2024-02-23T11:47:51;4.75;;;1.40;;
9541;SDS011;4809;48.224;8.572;2024-02-23T11:50:17;4.40;;;1.30;;
9541;SDS011;4809;48.224;8.572;2024-02-23T11:52:46;3.20;;;1.38;;
9541;SDS011;4809;48.224;8.572;2024-02-23T11:55:12;3.55;;;1.10;;
9541;SDS011;4809;48.224;8.572;2024-02-23T11:57:40;5.95;;;1.58;;
9541;SDS011;4809;48.224;8.572;2024-02-23T12:00:06;3.17;;;1.08;;
9541;SDS011;4809;48.224;8.572;2024-02-23T12:02:35;4.07;;;1.50;;
9541;SDS011;4809;48.224;8.572;2024-02-23T12:05:00;1.95;;;1.13;;
9541;SDS011;4809;48.224;8.572;2024-02-23T12:07:26;5.18;;;1.35;;
9541;SDS011;4809;48.224;8.572;2024-02-23T12:09:54;3.75;;;1.38;;
9541;SDS011;4809;48.224;8.572;2024-02-23T12:12:19;2.63;;;1.08;;
9541;SDS011;4809;48.224;8.572;2024-02-23T12:14:44;3.60;;;1.20;;
9541;SDS011;4809;48.224;8.572;2024-02-23T12:17:10;4.43;;;1.65;;
9541;SDS011;4809;48.224;8.572;2024-02-23T12:19:38;3.38;;;1.10;;
9541;SDS011;4809;48.224;8.572;2024-02-23T12:22:07;3.22;;;1.38;;
9541;SDS011;4809;48.224;8.572;2024-02-23T12:24:33;3.65;;;1.80;;
9541;SDS011;4809;48.224;8.572;2024-02-23T12:26:59;5.07;;;1.50;;
9541;SDS011;4809;48.224;8.572;2024-02-23T12:29:24;2.83;;;1.52;;
9541;SDS011;4809;48.224;8.572;2024-02-23T12:31:50;4.43;;;1.50;;
9541;SDS011;4809;48.224;8.572;2024-02-23T12:34:16;3.80;;;1.35;;
9541;SDS011;4809;48.224;8.572;2024-02-23T12:36:42;5.00;;;1.50;;
9541;SDS011;4809;48.224;8.572;2024-02-23T12:39:08;5.03;;;1.20;;
9541;SDS011;4809;48.224;8.572;2024-02-23T12:41:33;2.97;;;1.33;;
9541;SDS011;4809;48.224;8.572;2024-02-23T12:43:59;4.40;;;1.40;;
9541;SDS011;4809;48.224;8.572;2024-02-23T12:46:25;2.42;;;1.33;;
9541;SDS011;4809;48.224;8.572;2024-02-23T12:48:50;4.90;;;1.40;;
9541;SDS011;4809;48.224;8.572;2024-02-23T12:51:16;3.05;;;1.20;;
9541;SDS011;4809;48.224;8.572;2024-02-23T12:53:42;3.28;;;1.10;;
9541;SDS011;4809;48.224;8.572;2024-02-23T12:56:08;3.78;;;1.15;;
9541;SDS011;4809;48.224;8.572;2024-02-23T12:58:42;3.58;;;1.40;;
9541;SDS011;4809;48.224;8.572;2024-02-23T13:01:09;3.83;;;1.30;;
9541;SDS011;4809;48.224;8.572;2024-02-23T13:03:37;2.47;;;1.10;;
9541;SDS011;4809;48.224;8.572;2024-02-23T13:06:03;3.30;;;1.20;;
9541;SDS011;4809;48.224;8.572;2024-02-23T13:08:29;3.60;;;1.10;;
9541;SDS011;4809;48.224;8.572;2024-02-23T13:10:54;4.68;;;1.50;;
9541;SDS011;4809;48.224;8.572;2024-02-23T13:13:20;4.32;;;1.02;;
9541;SDS011;4809;48.224;8.572;2024-02-23T13:15:46;2.83;;;1.52;;
9541;SDS011;4809;48.224;8.572;2024-02-23T13:18:12;4.15;;;1.30;;
9541;SDS011;4809;48.224;8.572;2024-02-23T13:20:38;3.13;;;1.10;;
9541;SDS011;4809;48.224;8.572;2024-02-23T13:23:04;3.47;;;1.40;;
9541;SDS011;4809;48.224;8.572;2024-02-23T13:25:36;2.40;;;1.25;;
9541;SDS011;4809;48.224;8.572;2024-02-23T13:28:02;2.17;;;1.17;;
9541;SDS011;4809;48.224;8.572;2024-02-23T13:30:29;4.40;;;1.50;;
9541;SDS011;4809;48.224;8.572;2024-02-23T13:32:54;4.18;;;1.35;;
9541;SDS011;4809;48.224;8.572;2024-02-23T13:35:20;3.97;;;1.40;;
9541;SDS011;4809;48.224;8.572;2024-02-23T13:37:45;3.40;;;1.70;;
9541;SDS011;4809;48.224;8.572;2024-02-23T13:40:11;2.38;;;1.15;;
9541;SDS011;4809;48.224;8.572;2024-02-23T13:42:37;3.20;;;1.08;;
9541;SDS011;4809;48.224;8.572;2024-02-23T13:45:09;1.98;;;0.93;;
9541;SDS011;4809;48.224;8.572;2024-02-23T13:47:35;2.88;;;1.13;;
9541;SDS011;4809;48.224;8.572;2024-02-23T13:50:00;2.33;;;1.30;;
9541;SDS011;4809;48.224;8.572;2024-02-23T13:52:26;2.95;;;1.13;;
9541;SDS011;4809;48.224;8.572;2024-02-23T13:54:52;2.85;;;1.30;;
9541;SDS011;4809;48.224;8.572;2024-02-23T13:57:18;2.65;;;1.20;;
9541;SDS011;4809;48.224;8.572;2024-02-23T13:59:43;2.67;;;1.33;;
9541;SDS011;4809;48.224;8.572;2024-02-23T14:02:08;2.22;;;1.30;;
9541;SDS011;4809;48.224;8.572;2024-02-23T14:04:34;3.90;;;1.15;;
9541;SDS011;4809;48.224;8.572;2024-02-23T14:07:00;5.18;;;1.63;;
9541;SDS011;4809;48.224;8.572;2024-02-23T14:09:26;2.75;;;1.40;;
9541;SDS011;4809;48.224;8.572;2024-02-23T14:11:51;1.15;;;1.02;;
9541;SDS011;4809;48.224;8.572;2024-02-23T14:14:16;2.72;;;1.27;;
9541;SDS011;4809;48.224;8.572;2024-02-23T14:16:42;3.92;;;1.13;;
9541;SDS011;4809;48.224;8.572;2024-02-23T14:19:07;2.25;;;1.40;;
9541;SDS011;4809;48.224;8.572;2024-02-23T14:21:32;3.63;;;1.30;;
9541;SDS011;4809;48.224;8.572;2024-02-23T14:23:58;4.78;;;1.60;;
9541;SDS011;4809;48.224;8.572;2024-02-23T14:26:27;2.70;;;1.30;;
9541;SDS011;4809;48.224;8.572;2024-02-23T14:28:52;2.40;;;1.30;;
9541;SDS011;4809;48.224;8.572;2024-02-23T14:31:17;2.60;;;1.20;;
9541;SDS011;4809;48.224;8.572;2024-02-23T14:33:43;2.10;;;1.27;;
9541;SDS011;4809;48.224;8.572;2024-02-23T14:36:08;4.32;;;1.42;;
9541;SDS011;4809;48.224;8.572;2024-02-23T14:38:34;3.47;;;1.73;;
9541;SDS011;4809;48.224;8.572;2024-02-23T14:40:59;2.65;;;1.25;;
9541;SDS011;4809;48.224;8.572;2024-02-23T14:43:25;3.67;;;1.25;;
9541;SDS011;4809;48.224;8.572;2024-02-23T14:45:50;3.17;;;1.27;;
9541;SDS011;4809;48.224;8.572;2024-02-23T14:48:17;2.28;;;1.27;;
9541;SDS011;4809;48.224;8.572;2024-02-23T14:50:43;3.17;;;1.23;;
9541;SDS011;4809;48.224;8.572;2024-02-23T14:53:08;3.22;;;1.45;;
9541;SDS011;4809;48.224;8.572;2024-02-23T14:55:33;2.35;;;1.10;;
9541;SDS011;4809;48.224;8.572;2024-02-23T14:57:59;5.30;;;1.67;;
9541;SDS011;4809;48.224;8.572;2024-02-23T15:00:25;3.67;;;1.30;;
9541;SDS011;4809;48.224;8.572;2024-02-23T15:02:51;4.10;;;1.40;;
9541;SDS011;4809;48.224;8.572;2024-02-23T15:05:16;2.65;;;1.20;;
9541;SDS011;4809;48.224;8.572;2024-02-23T15:07:42;5.65;;;1.25;;
9541;SDS011;4809;48.224;8.572;2024-02-23T15:10:08;3.22;;;1.23;;